Погода Левенкина 2 недели

Смоленская область, Россия

22 мая-03 июня
  • 22мая
    Сегодня
    +8°
    +23°
    Практически безоблачно
    ВремяПогодаТемператураВлажностьДавлениеВетер, м/сВероятность осадков
    00:00Ясно и безоблачно+11°C84 %743 мм0.4 м/с2 %
    03:00Ясно и безоблачно+9°C93 %743 мм0.8 м/с2 %
    06:00Ясно и безоблачно+11°C86 %743 мм0.9 м/с2 %
    09:00Ясно и безоблачно+18°C71 %744 мм1.8 м/с2 %
    12:00Практически безоблачно+22°C55 %745 мм2.8 м/с2 %
    15:00Практически безоблачно+22°C45 %744 мм2.9 м/с5 %
    18:00Ясно и безоблачно+22°C42 %744 мм2.5 м/с7 %
    21:00Ясно и безоблачно+16°C50 %745 мм1.5 м/с1 %
  • 23мая
    Четверг
    +5°
    +20°
    Ясно и безоблачно
    ВремяПогодаТемператураВлажностьДавлениеВетер, м/сВероятность осадков
    00:00Ясно и безоблачно+11°C54 %745 мм1.5 м/с2 %
    03:00Ясно и безоблачно+10°C61 %746 мм1.6 м/с2 %
    06:00Ясно и безоблачно+10°C63 %748 мм1.6 м/с2 %
    09:00Ясно и безоблачно+16°C52 %749 мм2.6 м/с2 %
    12:00Ясно и безоблачно+19°C37 %749 мм3.5 м/с1 %
    15:00Ясно и безоблачно+20°C38 %749 мм3.5 м/с2 %
    18:00Ясно и безоблачно+20°C40 %749 мм3.0 м/с2 %
    21:00Ясно и безоблачно+14°C53 %750 мм1.6 м/с2 %
  • 24мая
    Пятница
    +6°
    +20°
    Ясно и безоблачно
    ВремяПогодаТемператураВлажностьДавлениеВетер, м/сВероятность осадков
    00:00Ясно и безоблачно+10°C57 %750 мм1.1 м/с2 %
    03:00Ясно и безоблачно+7°C67 %751 мм1.0 м/с2 %
    06:00Практически безоблачно+8°C67 %752 мм0.9 м/с2 %
    09:00Ясно и безоблачно+14°C46 %753 мм2.2 м/с2 %
    12:00Ясно и безоблачно+18°C38 %753 мм3.1 м/с2 %
    15:00Ясно и безоблачно+19°C35 %752 мм3.0 м/с2 %
    18:00Ясно и безоблачно+20°C38 %751 мм2.5 м/с2 %
    21:00Ясно и безоблачно+13°C57 %751 мм1.1 м/с2 %
  • 25мая
    Суббота
    +6°
    +22°
    Небольшая облачность
    ВремяПогодаТемператураВлажностьДавлениеВетер, м/сВероятность осадков
    00:00Ясно и безоблачно+8°C68 %751 мм0.7 м/с2 %
    03:00Ясно и безоблачно+6°C78 %751 мм0.8 м/с2 %
    06:00Ясно и безоблачно+8°C77 %751 мм0.6 м/с2 %
    09:00Ясно и безоблачно+16°C57 %751 мм1.5 м/с2 %
    12:00Ясно и безоблачно+20°C42 %750 мм2.3 м/с2 %
    15:00Небольшая облачность+22°C39 %749 мм2.4 м/с2 %
    18:00Практически безоблачно+22°C41 %748 мм2.0 м/с2 %
    21:00Ясно и безоблачно+15°C64 %747 мм0.9 м/с2 %
Мы используем cookies
Соглашаюсь